createdAt,value
2018-03-29T00:02:00.002Z,95.50
2018-03-29T00:04:28.304Z,95.40
2018-03-29T00:06:55.865Z,95.40
2018-03-29T00:09:23.420Z,95.40
2018-03-29T00:11:50.980Z,95.60
2018-03-29T00:14:18.514Z,95.40
2018-03-29T00:16:46.091Z,95.40
2018-03-29T00:19:14.405Z,95.40
2018-03-29T00:21:42.016Z,95.30
2018-03-29T00:24:09.555Z,95.40
2018-03-29T00:26:37.136Z,95.50
2018-03-29T00:29:05.429Z,95.90
2018-03-29T00:31:33.752Z,96.00
2018-03-29T00:34:01.304Z,95.90
2018-03-29T00:36:29.631Z,95.90
2018-03-29T00:38:57.930Z,95.90
2018-03-29T00:41:25.511Z,95.90
2018-03-29T00:43:53.046Z,95.90
2018-03-29T00:46:22.186Z,96.00
2018-03-29T00:48:50.535Z,96.10
2018-03-29T00:51:18.091Z,96.10
2018-03-29T00:53:45.636Z,96.10
2018-03-29T00:56:13.182Z,96.00
2018-03-29T00:58:41.500Z,96.20
2018-03-29T01:01:09.067Z,96.10
2018-03-29T01:03:36.604Z,96.20
2018-03-29T01:06:04.204Z,96.40
2018-03-29T01:08:33.540Z,96.40
2018-03-29T01:11:01.096Z,96.30
2018-03-29T01:13:28.653Z,96.20
2018-03-29T01:15:56.200Z,96.20
2018-03-29T01:18:23.991Z,96.20
2018-03-29T01:20:51.602Z,96.30
2018-03-29T01:23:19.145Z,96.30
2018-03-29T01:25:46.696Z,96.30
2018-03-29T01:28:15.041Z,96.20
2018-03-29T01:30:42.603Z,96.20
2018-03-29T01:33:10.157Z,96.30
2018-03-29T01:35:37.717Z,96.30
2018-03-29T01:38:05.247Z,96.50
2018-03-29T01:40:32.815Z,96.60
2018-03-29T01:43:00.408Z,96.70
2018-03-29T01:45:27.960Z,96.70
2018-03-29T01:47:55.502Z,96.90
2018-03-29T01:50:23.059Z,96.70
2018-03-29T01:52:50.577Z,96.70
2018-03-29T01:55:18.890Z,97.00
2018-03-29T01:57:46.432Z,97.00
2018-03-29T02:00:14.037Z,96.80
2018-03-29T02:02:41.594Z,97.00
2018-03-29T02:05:10.013Z,96.70
2018-03-29T02:07:38.329Z,96.80
2018-03-29T02:10:05.874Z,96.70
2018-03-29T02:12:33.430Z,96.80
2018-03-29T02:15:00.956Z,97.00
2018-03-29T02:17:28.511Z,97.20
2018-03-29T02:19:56.076Z,97.80
2018-03-29T02:22:23.629Z,97.90
2018-03-29T02:24:51.164Z,97.90
2018-03-29T02:27:18.714Z,97.90
2018-03-29T02:29:46.273Z,97.70
2018-03-29T02:32:13.805Z,97.80
2018-03-29T02:34:41.376Z,97.90
2018-03-29T02:37:08.911Z,97.90
2018-03-29T02:39:37.258Z,98.00
2018-03-29T02:42:04.803Z,97.90
2018-03-29T02:44:32.389Z,97.70
2018-03-29T02:46:59.926Z,97.70
2018-03-29T02:49:27.683Z,97.70
2018-03-29T02:51:55.244Z,97.90
2018-03-29T02:54:22.846Z,97.90
2018-03-29T02:56:51.192Z,97.90
2018-03-29T02:59:18.755Z,97.90
2018-03-29T03:01:46.335Z,97.80
2018-03-29T03:04:13.894Z,98.00
2018-03-29T03:06:41.449Z,98.00
2018-03-29T03:09:08.984Z,97.90
2018-03-29T03:11:36.552Z,97.90
2018-03-29T03:14:04.124Z,97.90
2018-03-29T03:16:31.664Z,97.90
2018-03-29T03:19:00.268Z,97.90
2018-03-29T03:21:27.814Z,97.80
2018-03-29T03:23:55.371Z,97.70
2018-03-29T03:26:22.922Z,97.70
2018-03-29T03:28:50.491Z,97.70
2018-03-29T03:31:18.027Z,97.80
2018-03-29T03:33:45.604Z,97.80
2018-03-29T03:36:13.153Z,97.70
2018-03-29T03:38:40.737Z,97.70
2018-03-29T03:41:08.283Z,97.70
2018-03-29T03:43:35.810Z,97.80
2018-03-29T03:46:04.134Z,96.50
2018-03-29T03:48:31.670Z,96.50
2018-03-29T03:50:59.254Z,96.20
2018-03-29T03:53:26.782Z,95.60
2018-03-29T03:55:54.356Z,95.40
2018-03-29T03:58:21.897Z,95.00
2018-03-29T04:00:49.462Z,94.90
2018-03-29T04:03:17.019Z,95.00
2018-03-29T04:05:45.361Z,94.30
2018-03-29T04:08:12.912Z,94.20
2018-03-29T04:10:40.479Z,94.20
2018-03-29T04:13:08.031Z,94.30
2018-03-29T04:15:35.611Z,93.40
2018-03-29T04:18:03.166Z,93.20
2018-03-29T04:20:30.697Z,92.80
2018-03-29T04:22:58.250Z,92.80
2018-03-29T04:25:25.790Z,92.00
2018-03-29T04:27:53.360Z,92.10
2018-03-29T04:30:20.914Z,92.30
2018-03-29T04:32:48.466Z,91.90
2018-03-29T04:35:16.058Z,91.00
2018-03-29T04:37:44.615Z,90.50
2018-03-29T04:40:12.158Z,90.00
2018-03-29T04:42:39.803Z,90.00
2018-03-29T04:45:07.331Z,90.50
2018-03-29T04:47:34.871Z,90.60
2018-03-29T04:50:02.451Z,90.10
2018-03-29T04:52:29.997Z,89.70
2018-03-29T04:54:57.568Z,89.60
2018-03-29T04:57:25.869Z,89.90
2018-03-29T04:59:53.446Z,89.90
2018-03-29T05:02:21.055Z,90.20
2018-03-29T05:04:48.627Z,90.10
2018-03-29T05:07:16.181Z,90.40
2018-03-29T05:09:43.747Z,90.60
2018-03-29T05:12:11.281Z,90.30
2018-03-29T05:14:38.857Z,90.50
2018-03-29T05:17:06.418Z,90.30
2018-03-29T05:19:33.951Z,89.80
2018-03-29T05:22:01.506Z,89.40
2018-03-29T05:24:29.054Z,89.10
2018-03-29T05:26:57.422Z,88.90
2018-03-29T05:29:24.957Z,88.80
2018-03-29T05:31:52.531Z,88.40
2018-03-29T05:34:20.076Z,88.10
2018-03-29T05:36:47.628Z,88.80
2018-03-29T05:39:15.159Z,88.40
2018-03-29T05:41:43.641Z,88.70
2018-03-29T05:44:11.236Z,88.30
2018-03-29T05:46:39.768Z,88.70
2018-03-29T05:49:08.107Z,87.80
2018-03-29T05:51:35.651Z,87.80
2018-03-29T05:54:03.225Z,88.20
2018-03-29T05:56:30.750Z,88.10
2018-03-29T05:58:58.328Z,87.40
2018-03-29T06:01:25.854Z,87.10
2018-03-29T06:03:53.430Z,86.10
2018-03-29T06:06:20.971Z,86.70
2018-03-29T06:08:49.294Z,86.60
2018-03-29T06:11:16.848Z,86.60
2018-03-29T06:13:44.397Z,86.60
2018-03-29T06:16:11.961Z,87.00
2018-03-29T06:18:39.496Z,85.80
2018-03-29T06:21:07.051Z,85.90
2018-03-29T06:23:34.583Z,85.80
2018-03-29T06:26:02.165Z,86.10
2018-03-29T06:28:30.490Z,86.00
2018-03-29T06:30:58.044Z,85.80
2018-03-29T06:33:25.584Z,86.00
2018-03-29T06:35:53.145Z,86.20
2018-03-29T06:38:20.690Z,86.00
2018-03-29T06:40:49.023Z,86.20
2018-03-29T06:43:16.569Z,86.20
2018-03-29T06:45:44.182Z,86.30
2018-03-29T06:48:12.493Z,85.60
2018-03-29T06:50:40.033Z,85.50
2018-03-29T06:53:07.577Z,85.70
2018-03-29T06:55:35.888Z,85.00
2018-03-29T06:58:03.449Z,85.00
2018-03-29T07:00:31.001Z,84.70
2018-03-29T07:02:58.575Z,84.70
2018-03-29T07:05:26.131Z,84.40
2018-03-29T07:07:53.695Z,84.00
2018-03-29T07:10:21.239Z,83.70
2018-03-29T07:12:48.790Z,83.80
2018-03-29T07:15:16.332Z,84.00
2018-03-29T07:17:44.671Z,83.70
2018-03-29T07:20:12.186Z,83.70
2018-03-29T07:22:39.730Z,83.30
2018-03-29T07:25:08.051Z,83.40
2018-03-29T07:27:35.574Z,83.30
2018-03-29T07:30:03.123Z,82.70
2018-03-29T07:32:31.419Z,82.70
2018-03-29T07:34:58.976Z,82.60
2018-03-29T07:37:27.271Z,82.20
2018-03-29T07:39:54.827Z,82.90
2018-03-29T07:42:22.358Z,82.00
2018-03-29T07:44:50.677Z,81.90
2018-03-29T07:47:18.215Z,81.80
2018-03-29T07:49:46.530Z,81.50
2018-03-29T07:52:14.185Z,81.50
2018-03-29T07:54:41.747Z,81.30
2018-03-29T07:57:09.284Z,81.10
2018-03-29T07:59:36.809Z,80.80
2018-03-29T08:02:04.345Z,80.50
2018-03-29T08:04:31.914Z,80.70
2018-03-29T08:06:59.448Z,80.40
2018-03-29T08:09:26.978Z,80.20
2018-03-29T08:11:54.545Z,80.00
2018-03-29T08:14:22.071Z,79.70
2018-03-29T08:16:50.385Z,79.80
2018-03-29T08:19:17.917Z,79.40
2018-03-29T08:21:46.291Z,79.10
2018-03-29T08:24:13.802Z,79.00
2018-03-29T08:26:41.346Z,79.50
2018-03-29T08:29:08.895Z,79.10
2018-03-29T08:31:36.431Z,78.90
2018-03-29T08:34:04.746Z,78.50
2018-03-29T08:36:32.285Z,78.40
2018-03-29T08:38:59.839Z,78.90
2018-03-29T08:41:28.133Z,78.50
2018-03-29T08:43:55.715Z,78.30
2018-03-29T08:46:23.237Z,78.80
2018-03-29T08:48:51.525Z,78.70
2018-03-29T08:51:19.943Z,78.60
2018-03-29T08:53:47.473Z,79.50
2018-03-29T08:56:15.019Z,78.90
2018-03-29T08:58:43.338Z,77.30
2018-03-29T09:01:10.887Z,77.20
2018-03-29T09:03:38.428Z,76.90
2018-03-29T09:06:06.919Z,77.70
2018-03-29T09:08:34.473Z,77.70
2018-03-29T09:11:02.034Z,78.30
2018-03-29T09:13:29.562Z,76.70
2018-03-29T09:15:57.888Z,76.80
2018-03-29T09:18:25.463Z,76.80
2018-03-29T09:20:53.002Z,76.30
2018-03-29T09:23:20.563Z,76.00
2018-03-29T09:25:48.115Z,74.90
2018-03-29T09:28:15.660Z,75.70
2018-03-29T09:30:43.250Z,74.90
2018-03-29T09:33:10.796Z,73.00
2018-03-29T09:35:38.390Z,71.00
2018-03-29T09:38:05.956Z,71.50
2018-03-29T09:40:33.555Z,70.70
2018-03-29T09:43:01.086Z,69.90
2018-03-29T09:45:29.069Z,69.20
2018-03-29T09:47:56.618Z,69.30
2018-03-29T09:50:24.172Z,69.00
2018-03-29T09:52:51.695Z,69.60
2018-03-29T09:55:19.256Z,67.70
2018-03-29T09:57:46.839Z,68.20
2018-03-29T10:00:14.452Z,67.20
2018-03-29T10:02:47.672Z,67.40
2018-03-29T10:05:15.247Z,67.30
2018-03-29T10:07:42.791Z,68.00
2018-03-29T10:10:10.363Z,68.60
2018-03-29T10:12:37.927Z,70.10
2018-03-29T10:15:06.485Z,71.10
2018-03-29T10:17:34.050Z,70.90
2018-03-29T10:20:01.591Z,70.70
2018-03-29T10:22:29.144Z,71.70
2018-03-29T10:24:56.682Z,70.50
2018-03-29T10:27:24.242Z,68.90
2018-03-29T10:29:51.771Z,68.60
2018-03-29T10:32:19.330Z,67.30
2018-03-29T10:34:46.871Z,67.40
2018-03-29T10:37:16.348Z,67.20
2018-03-29T10:39:47.564Z,66.50
2018-03-29T10:42:15.119Z,66.40
2018-03-29T10:44:44.690Z,68.10
2018-03-29T10:47:12.251Z,67.20
2018-03-29T10:49:39.807Z,66.60
2018-03-29T10:52:07.371Z,66.30
2018-03-29T10:54:34.957Z,65.50
2018-03-29T10:57:02.498Z,64.90
2018-03-29T10:59:30.075Z,65.40
2018-03-29T11:01:57.614Z,64.10
2018-03-29T11:04:25.162Z,64.00
2018-03-29T11:06:52.738Z,64.60
2018-03-29T11:09:20.318Z,64.10
2018-03-29T11:11:47.872Z,64.90
2018-03-29T11:14:15.414Z,65.60
2018-03-29T11:16:42.974Z,66.20
2018-03-29T11:19:10.510Z,66.80
2018-03-29T11:21:38.088Z,66.00
2018-03-29T11:24:05.624Z,65.30
2018-03-29T11:26:33.943Z,64.30
2018-03-29T11:29:01.483Z,64.30
2018-03-29T11:31:29.052Z,63.90
2018-03-29T11:33:56.590Z,64.00
2018-03-29T11:36:24.122Z,65.10
2018-03-29T11:38:55.118Z,64.30
2018-03-29T11:41:22.669Z,63.70
2018-03-29T11:43:50.324Z,63.60
2018-03-29T11:46:18.413Z,63.60
2018-03-29T11:48:45.993Z,64.00
2018-03-29T11:51:13.542Z,64.70
2018-03-29T11:53:41.198Z,64.30
2018-03-29T11:56:08.739Z,64.50
2018-03-29T11:58:36.325Z,64.70
2018-03-29T12:01:03.866Z,64.60
2018-03-29T12:03:31.459Z,63.90
2018-03-29T12:05:59.273Z,63.30
2018-03-29T12:08:26.819Z,62.30
2018-03-29T12:10:55.354Z,61.60
2018-03-29T12:13:23.013Z,62.20
2018-03-29T12:15:50.572Z,60.70
2018-03-29T12:18:19.132Z,61.20
2018-03-29T12:20:46.709Z,58.90
2018-03-29T12:23:14.247Z,59.10
2018-03-29T12:25:41.807Z,58.90
2018-03-29T12:28:10.113Z,59.60
2018-03-29T12:30:37.659Z,59.50
2018-03-29T12:33:05.212Z,61.10
2018-03-29T12:35:32.788Z,62.60
2018-03-29T12:38:00.319Z,64.10
2018-03-29T12:40:28.609Z,66.00
2018-03-29T12:42:56.166Z,65.80
2018-03-29T12:45:23.708Z,66.70
2018-03-29T12:47:51.267Z,66.70
2018-03-29T12:50:19.591Z,67.00
2018-03-29T12:52:47.133Z,66.80
2018-03-29T12:55:26.523Z,65.00
2018-03-29T12:58:10.690Z,64.70
2018-03-29T13:00:38.994Z,62.20
2018-03-29T13:03:06.588Z,62.10
2018-03-29T13:05:40.520Z,61.20
2018-03-29T13:08:08.176Z,61.10
2018-03-29T13:10:37.781Z,61.20
2018-03-29T13:13:05.413Z,61.50
2018-03-29T13:15:38.915Z,58.90
2018-03-29T13:18:06.601Z,59.90
2018-03-29T13:20:39.988Z,59.50
2018-03-29T13:23:21.453Z,57.40
2018-03-29T13:25:49.082Z,59.00
2018-03-29T13:28:19.331Z,58.70
2018-03-29T13:30:46.982Z,58.70
2018-03-29T13:33:15.553Z,59.40
2018-03-29T13:35:44.982Z,60.70
2018-03-29T13:38:27.692Z,60.70
2018-03-29T13:40:55.318Z,60.90
2018-03-29T13:43:23.674Z,61.10
2018-03-29T13:45:51.241Z,61.10
2018-03-29T13:48:18.809Z,61.20
2018-03-29T13:50:46.361Z,60.40
2018-03-29T13:53:13.957Z,60.60
2018-03-29T13:55:41.515Z,60.20
2018-03-29T13:58:09.819Z,59.80
2018-03-29T14:00:37.378Z,59.70
2018-03-29T14:03:04.912Z,59.50
2018-03-29T14:05:32.454Z,59.30
2018-03-29T14:07:59.987Z,59.90
2018-03-29T14:10:27.584Z,59.30
2018-03-29T14:12:55.150Z,59.80
2018-03-29T14:15:22.765Z,59.60
2018-03-29T14:17:50.326Z,60.00
2018-03-29T14:20:17.867Z,60.20
2018-03-29T14:22:45.442Z,59.80
2018-03-29T14:25:12.965Z,59.80
2018-03-29T14:27:41.342Z,59.60
2018-03-29T14:30:10.435Z,59.80
2018-03-29T14:32:38.042Z,59.80
2018-03-29T14:35:05.545Z,59.80
2018-03-29T14:37:33.112Z,60.60
2018-03-29T14:40:00.880Z,59.90
2018-03-29T14:42:29.411Z,59.80
2018-03-29T14:44:56.967Z,60.20
2018-03-29T14:47:24.495Z,60.50
2018-03-29T14:49:52.070Z,60.50
2018-03-29T14:52:19.600Z,60.90
2018-03-29T14:54:47.914Z,61.90
2018-03-29T14:57:15.482Z,61.00
2018-03-29T14:59:43.092Z,61.30
2018-03-29T15:02:10.664Z,61.50
2018-03-29T15:04:38.243Z,61.20
2018-03-29T15:07:05.802Z,59.80
2018-03-29T15:09:33.395Z,59.90
2018-03-29T15:12:01.960Z,59.70
2018-03-29T15:14:29.507Z,58.80
2018-03-29T15:16:57.853Z,57.90
2018-03-29T15:19:25.407Z,57.90
2018-03-29T15:21:53.035Z,57.90
2018-03-29T15:24:21.374Z,58.30
2018-03-29T15:26:49.694Z,58.10
2018-03-29T15:29:17.208Z,58.10
2018-03-29T15:31:45.537Z,57.40
2018-03-29T15:34:13.084Z,57.40
2018-03-29T15:36:40.665Z,57.90
2018-03-29T15:39:08.204Z,58.20
2018-03-29T15:41:35.762Z,59.30
2018-03-29T15:44:03.301Z,58.90
2018-03-29T15:46:31.604Z,59.00
2018-03-29T15:48:59.158Z,58.90
2018-03-29T15:51:26.731Z,59.30
2018-03-29T15:53:54.290Z,58.90
2018-03-29T15:56:21.847Z,58.90
2018-03-29T15:58:49.393Z,59.50
2018-03-29T16:01:16.925Z,59.60
2018-03-29T16:03:45.371Z,60.00
2018-03-29T16:06:12.929Z,59.90
2018-03-29T16:08:40.484Z,60.60
2018-03-29T16:11:08.044Z,60.60
2018-03-29T16:13:35.587Z,61.20
2018-03-29T16:16:03.146Z,60.70
2018-03-29T16:18:30.682Z,60.90
2018-03-29T16:20:58.245Z,60.90
2018-03-29T16:23:25.780Z,60.70
2018-03-29T16:25:54.130Z,60.30
2018-03-29T16:28:21.678Z,60.40
2018-03-29T16:30:49.265Z,60.50
2018-03-29T16:33:16.804Z,60.30
2018-03-29T16:35:44.375Z,60.40
2018-03-29T16:38:11.905Z,60.50
2018-03-29T16:40:39.442Z,59.80
2018-03-29T16:43:07.004Z,60.80
2018-03-29T16:45:34.552Z,61.10
2018-03-29T16:48:02.873Z,62.00
2018-03-29T16:50:30.437Z,62.00
2018-03-29T16:52:57.992Z,63.00
2018-03-29T16:55:25.539Z,62.90
2018-03-29T16:57:53.108Z,63.00
2018-03-29T17:00:20.661Z,62.70
2018-03-29T17:02:48.212Z,63.20
2018-03-29T17:05:15.783Z,63.40
2018-03-29T17:07:43.327Z,63.50
2018-03-29T17:10:10.879Z,64.20
2018-03-29T17:12:38.430Z,67.00
2018-03-29T17:15:06.007Z,69.20
2018-03-29T17:17:39.246Z,70.10
2018-03-29T17:20:06.820Z,71.50
2018-03-29T17:22:40.376Z,71.50
2018-03-29T17:25:07.939Z,72.20
2018-03-29T17:27:35.460Z,72.90
2018-03-29T17:30:03.003Z,73.30
2018-03-29T17:32:30.521Z,74.10
2018-03-29T17:34:58.079Z,74.50
2018-03-29T17:37:25.610Z,75.00
2018-03-29T17:39:53.202Z,75.50
2018-03-29T17:42:20.739Z,75.40
2018-03-29T17:44:48.316Z,75.70
2018-03-29T17:47:15.920Z,75.90
2018-03-29T17:49:43.506Z,76.40
2018-03-29T17:52:11.114Z,76.60
2018-03-29T17:54:38.641Z,76.80
2018-03-29T17:57:06.249Z,77.30
2018-03-29T17:59:33.773Z,77.70
2018-03-29T18:02:01.319Z,79.20
2018-03-29T18:04:32.450Z,79.00
2018-03-29T18:07:05.180Z,79.80
2018-03-29T18:09:35.247Z,81.20
2018-03-29T18:12:02.866Z,80.80
2018-03-29T18:14:30.412Z,81.30
2018-03-29T18:16:57.970Z,81.20
2018-03-29T18:19:25.562Z,81.20
2018-03-29T18:21:54.071Z,81.20
2018-03-29T18:24:21.623Z,80.90
2018-03-29T18:26:50.923Z,81.60
2018-03-29T18:29:20.254Z,81.20
2018-03-29T18:31:47.827Z,81.20
2018-03-29T18:34:15.378Z,81.60
2018-03-29T18:36:43.024Z,81.60
2018-03-29T18:39:11.444Z,81.10
2018-03-29T18:41:38.989Z,81.00
2018-03-29T18:44:06.668Z,80.10
2018-03-29T18:46:34.227Z,79.40
2018-03-29T18:49:01.808Z,78.80
2018-03-29T18:51:29.433Z,78.80
2018-03-29T18:53:57.004Z,77.90
2018-03-29T18:56:24.637Z,77.40
2018-03-29T18:58:52.183Z,77.10
2018-03-29T19:01:20.518Z,77.50
2018-03-29T19:03:48.047Z,77.40
2018-03-29T19:06:15.594Z,77.10
2018-03-29T19:08:43.928Z,76.20
2018-03-29T19:11:11.483Z,76.20
2018-03-29T19:13:39.065Z,76.30
2018-03-29T19:16:06.605Z,76.20
2018-03-29T19:18:34.165Z,75.40
2018-03-29T19:21:01.714Z,76.30
2018-03-29T19:23:30.052Z,76.70
2018-03-29T19:25:57.648Z,76.60
2018-03-29T19:28:25.220Z,76.50
2018-03-29T19:30:52.772Z,76.50
2018-03-29T19:33:20.361Z,76.20
2018-03-29T19:35:47.941Z,76.40
2018-03-29T19:38:16.266Z,77.50
2018-03-29T19:40:44.136Z,76.60
2018-03-29T19:43:11.671Z,76.70
2018-03-29T19:45:39.236Z,76.70
2018-03-29T19:48:06.771Z,76.70
2018-03-29T19:50:35.229Z,76.70
2018-03-29T19:53:02.877Z,76.60
2018-03-29T19:55:31.233Z,76.60
2018-03-29T19:57:58.786Z,76.50
2018-03-29T20:00:26.480Z,77.00
2018-03-29T20:02:54.037Z,77.30
2018-03-29T20:05:21.716Z,77.30
2018-03-29T20:07:49.268Z,77.40
2018-03-29T20:10:16.932Z,77.60
2018-03-29T20:12:44.521Z,77.90
2018-03-29T20:15:13.211Z,77.90
2018-03-29T20:17:41.555Z,77.90
2018-03-29T20:20:09.235Z,77.80
2018-03-29T20:22:36.774Z,77.70
2018-03-29T20:25:04.323Z,77.50
2018-03-29T20:27:31.897Z,77.60
2018-03-29T20:29:59.422Z,77.40
2018-03-29T20:32:27.044Z,77.30
2018-03-29T20:34:54.585Z,76.80
2018-03-29T20:37:22.240Z,76.80
2018-03-29T20:39:49.769Z,76.90
2018-03-29T20:42:17.286Z,77.20
2018-03-29T20:44:45.617Z,77.60
2018-03-29T20:47:13.187Z,77.60
2018-03-29T20:49:40.836Z,77.90
2018-03-29T20:52:08.456Z,78.30
2018-03-29T20:54:36.776Z,78.80
2018-03-29T20:57:04.328Z,78.70
2018-03-29T20:59:31.870Z,79.20
2018-03-29T21:01:59.529Z,79.40
2018-03-29T21:04:27.121Z,79.70
2018-03-29T21:06:54.679Z,80.00
2018-03-29T21:09:22.281Z,79.60
2018-03-29T21:11:50.417Z,80.00
2018-03-29T21:14:17.988Z,80.10
2018-03-29T21:16:45.583Z,80.10
2018-03-29T21:19:13.144Z,80.40
2018-03-29T21:21:40.773Z,80.60
2018-03-29T21:24:09.106Z,80.90
2018-03-29T21:26:36.667Z,80.70
2018-03-29T21:29:05.070Z,81.10
2018-03-29T21:31:32.707Z,81.10
2018-03-29T21:34:01.453Z,81.10
2018-03-29T21:36:29.068Z,81.20
2018-03-29T21:38:56.646Z,81.20
2018-03-29T21:41:24.236Z,81.30
2018-03-29T21:43:51.916Z,81.30
2018-03-29T21:46:20.333Z,81.40
2018-03-29T21:48:47.890Z,81.50
2018-03-29T21:51:16.378Z,81.70
2018-03-29T21:53:43.939Z,82.10
2018-03-29T21:56:11.512Z,81.90
2018-03-29T21:58:39.106Z,82.10
2018-03-29T22:01:06.661Z,82.40
2018-03-29T22:03:34.267Z,82.60
2018-03-29T22:06:01.872Z,83.00
2018-03-29T22:08:29.463Z,83.00
2018-03-29T22:10:57.050Z,83.10
2018-03-29T22:13:24.678Z,83.30
2018-03-29T22:15:52.260Z,84.00
2018-03-29T22:18:20.611Z,84.90
2018-03-29T22:20:48.173Z,84.90
2018-03-29T22:23:15.773Z,85.40
2018-03-29T22:25:44.076Z,85.70
2018-03-29T22:28:12.231Z,85.60
2018-03-29T22:30:39.807Z,85.40
2018-03-29T22:33:07.363Z,85.30
2018-03-29T22:35:34.956Z,85.10
2018-03-29T22:38:02.507Z,84.50
2018-03-29T22:40:30.103Z,84.20
2018-03-29T22:42:57.667Z,84.00
2018-03-29T22:45:25.249Z,84.00
2018-03-29T22:47:53.594Z,84.70
2018-03-29T22:50:21.174Z,84.70
2018-03-29T22:52:48.719Z,84.80
2018-03-29T22:55:17.794Z,85.00
2018-03-29T22:57:45.383Z,84.90
2018-03-29T23:00:12.934Z,85.20
2018-03-29T23:02:40.491Z,85.00
2018-03-29T23:05:08.035Z,85.10
2018-03-29T23:07:35.603Z,84.80
2018-03-29T23:10:03.153Z,84.90
2018-03-29T23:12:30.716Z,85.50
2018-03-29T23:14:58.271Z,85.50
2018-03-29T23:17:25.894Z,85.50
2018-03-29T23:19:53.453Z,86.30
2018-03-29T23:22:21.000Z,86.60
2018-03-29T23:24:51.274Z,87.70
2018-03-29T23:27:18.815Z,87.60
2018-03-29T23:29:47.195Z,87.80
2018-03-29T23:32:15.591Z,88.00
2018-03-29T23:34:43.163Z,88.20
2018-03-29T23:37:10.711Z,88.50
2018-03-29T23:39:38.275Z,88.70
2018-03-29T23:42:05.843Z,89.30
2018-03-29T23:44:33.431Z,89.60
2018-03-29T23:47:00.992Z,89.50
2018-03-29T23:49:28.546Z,89.20
2018-03-29T23:51:56.157Z,88.20
2018-03-29T23:54:23.742Z,87.30
2018-03-29T23:56:51.348Z,87.10
2018-03-29T23:59:19.647Z,85.80
